Time;durP1;ratioP1;P1;durP2;ratioP2;P2;SDS_P1;SDS_P2;PMS_P1;PMS_P2;Temp;Humidity;BMP_temperature;BMP_pressure;BME280_temperature;BME280_humidity;BME280_pressure;Samples;Min_cycle;Max_cycle;Signal;HPM_P1;HPM_P2
2021/01/18 00:00:12;;;;;;;8.67;7.30;;;2.10;99.90;;;;;;5066961;28;20209;-77
2021/01/18 00:02:38;;;;;;;8.15;7.25;;;2.20;99.90;;;;;;5065073;28;20229;-76
2021/01/18 00:05:05;;;;;;;8.00;6.40;;;2.20;99.90;;;;;;5071434;28;20280;-76
2021/01/18 00:07:45;;;;;;;10.23;6.68;;;2.20;99.90;;;;;;5071714;28;20561;-78
2021/01/18 00:10:13;;;;;;;7.10;4.75;;;2.20;99.90;;;;;;5068389;28;20221;-76
2021/01/18 00:12:38;;;;;;;7.40;6.57;;;2.30;99.90;;;;;;5069667;28;20193;-77
2021/01/18 00:15:05;;;;;;;5.67;5.10;;;2.30;99.90;;;;;;5070922;28;20192;-77
2021/01/18 00:17:34;;;;;;;5.32;4.65;;;2.30;99.90;;;;;;5077398;28;20249;-78
2021/01/18 00:19:59;;;;;;;5.60;4.55;;;2.30;99.90;;;;;;5070760;28;20205;-77
2021/01/18 00:22:25;;;;;;;5.30;4.80;;;2.30;99.90;;;;;;5073346;28;20807;-77
2021/01/18 00:24:50;;;;;;;6.40;4.40;;;2.30;99.90;;;;;;5075874;28;20178;-77
2021/01/18 00:27:15;;;;;;;6.53;4.73;;;2.30;99.90;;;;;;5067871;28;20201;-77
2021/01/18 00:29:41;;;;;;;6.83;4.90;;;2.30;99.90;;;;;;5072394;28;20647;-78
2021/01/18 00:32:06;;;;;;;5.73;4.10;;;2.30;99.90;;;;;;5068205;28;20190;-77
2021/01/18 00:34:32;;;;;;;7.07;4.80;;;2.30;99.90;;;;;;5077593;28;20200;-77
2021/01/18 00:36:57;;;;;;;8.90;4.70;;;2.30;99.90;;;;;;5075611;28;20223;-77
2021/01/18 00:39:23;;;;;;;5.97;4.40;;;2.30;99.90;;;;;;5075346;28;20552;-77
2021/01/18 00:41:48;;;;;;;5.73;4.00;;;2.30;99.90;;;;;;5074684;28;20190;-77
2021/01/18 00:44:14;;;;;;;7.10;4.30;;;2.30;99.90;;;;;;5075287;28;20596;-76
2021/01/18 00:46:44;;;;;;;6.53;4.63;;;2.30;99.90;;;;;;5074305;28;20196;-77
2021/01/18 00:49:09;;;;;;;6.28;4.13;;;2.30;99.90;;;;;;5067912;28;20245;-77
2021/01/18 00:51:36;;;;;;;7.37;3.93;;;2.20;99.90;;;;;;5073078;28;20300;-77
2021/01/18 00:54:02;;;;;;;5.57;4.20;;;2.20;99.90;;;;;;5072502;28;20193;-77
2021/01/18 00:56:27;;;;;;;7.90;5.07;;;2.10;99.90;;;;;;5071884;28;20178;-77
2021/01/18 00:58:53;;;;;;;6.20;4.90;;;2.10;99.90;;;;;;5075141;28;20564;-77
2021/01/18 01:01:18;;;;;;;7.23;4.80;;;2.00;99.90;;;;;;5070487;28;20209;-77
2021/01/18 01:03:44;;;;;;;9.23;4.70;;;2.00;99.90;;;;;;5074467;28;20632;-77
2021/01/18 01:06:09;;;;;;;5.60;4.37;;;2.00;99.90;;;;;;5074514;28;20598;-77
2021/01/18 01:08:35;;;;;;;8.20;4.87;;;1.90;99.90;;;;;;5074746;28;20272;-77
2021/01/18 01:11:00;;;;;;;4.70;4.00;;;1.90;99.90;;;;;;5070120;28;20218;-77
2021/01/18 01:13:26;;;;;;;10.40;5.17;;;1.80;99.90;;;;;;5074519;28;20190;-77
2021/01/18 01:15:52;;;;;;;6.90;5.13;;;1.80;99.90;;;;;;5070042;28;20177;-77
2021/01/18 01:18:17;;;;;;;5.30;4.20;;;1.80;99.90;;;;;;5074561;28;20497;-77
2021/01/18 01:20:42;;;;;;;6.27;4.63;;;1.80;99.90;;;;;;5073746;28;20212;-77
2021/01/18 01:23:08;;;;;;;6.70;4.67;;;1.80;99.90;;;;;;5074836;28;20189;-77
2021/01/18 01:25:33;;;;;;;8.97;4.73;;;1.70;99.90;;;;;;5069546;28;20190;-77
2021/01/18 01:27:59;;;;;;;6.83;4.70;;;1.70;99.90;;;;;;5074169;28;20186;-77
2021/01/18 01:30:26;;;;;;;5.80;4.27;;;1.70;99.90;;;;;;5069512;28;20205;-77
2021/01/18 01:32:53;;;;;;;5.78;4.50;;;1.70;99.90;;;;;;5065724;28;20177;-77
2021/01/18 01:35:21;;;;;;;7.35;4.65;;;1.70;99.90;;;;;;5074311;28;20233;-77
2021/01/18 01:37:47;;;;;;;6.13;4.75;;;1.70;99.90;;;;;;5073604;28;20273;-77
2021/01/18 01:40:15;;;;;;;7.33;4.70;;;1.70;99.90;;;;;;5072826;28;20618;-77
2021/01/18 01:42:41;;;;;;;6.38;4.75;;;1.80;99.90;;;;;;5074023;28;20515;-77
2021/01/18 01:45:08;;;;;;;6.38;4.75;;;1.80;99.90;;;;;;5073071;28;20182;-76
2021/01/18 01:47:53;;;;;;;7.72;4.90;;;1.80;99.90;;;;;;5068098;28;20657;-77
2021/01/18 01:50:32;;;;;;;6.78;4.15;;;1.80;99.90;;;;;;5071929;28;20209;-77
2021/01/18 01:53:08;;;;;;;5.93;5.15;;;1.90;99.90;;;;;;5074447;28;20182;-77
2021/01/18 01:55:34;;;;;;;7.95;4.10;;;1.90;99.90;;;;;;5070993;28;20189;-77
2021/01/18 01:58:01;;;;;;;4.97;4.43;;;1.90;99.90;;;;;;5070193;28;20664;-76
2021/01/18 02:00:39;;;;;;;5.55;4.45;;;1.90;99.90;;;;;;5068219;28;20190;-76
2021/01/18 02:03:07;;;;;;;5.47;3.60;;;1.90;99.90;;;;;;5069380;28;20189;-76
2021/01/18 02:05:33;;;;;;;4.95;3.85;;;1.90;99.90;;;;;;5072424;28;20235;-76
2021/01/18 02:08:03;;;;;;;6.20;3.70;;;2.00;99.90;;;;;;5073267;28;20658;-77
2021/01/18 02:10:29;;;;;;;5.55;3.88;;;2.00;99.90;;;;;;5063469;28;20827;-77
2021/01/18 02:12:58;;;;;;;6.20;4.82;;;2.00;99.90;;;;;;5073448;28;20223;-77
2021/01/18 02:15:33;;;;;;;5.05;3.88;;;2.00;99.90;;;;;;5071732;28;20255;-77
2021/01/18 02:18:17;;;;;;;7.90;4.55;;;2.00;99.90;;;;;;5071712;28;20181;-77
2021/01/18 02:21:10;;;;;;;6.53;4.43;;;2.00;99.90;;;;;;5065423;28;20629;-77
2021/01/18 02:23:57;;;;;;;3.92;3.20;;;2.00;99.90;;;;;;5073434;28;20194;-77
2021/01/18 02:27:08;;;;;;;4.88;3.83;;;2.10;99.90;;;;;;5072266;28;20509;-77
2021/01/18 02:30:02;;;;;;;6.28;3.83;;;2.10;99.90;;;;;;5098114;28;20642;-77
2021/01/18 02:33:13;;;;;;;6.43;3.47;;;2.10;99.90;;;;;;5068367;28;20264;-77
2021/01/18 02:35:41;;;;;;;5.20;3.25;;;2.10;99.90;;;;;;5071835;28;20563;-76
2021/01/18 02:38:27;;;;;;;5.40;3.65;;;2.10;99.90;;;;;;5072870;28;20189;-77
2021/01/18 02:41:11;;;;;;;3.70;3.35;;;2.10;99.90;;;;;;5071600;28;20198;-77
2021/01/18 02:43:52;;;;;;;3.92;3.25;;;2.10;99.90;;;;;;5072864;28;20221;-77
2021/01/18 02:46:21;;;;;;;4.13;2.85;;;2.10;99.90;;;;;;5070002;28;20265;-76
2021/01/18 02:48:47;;;;;;;6.85;4.00;;;2.10;99.90;;;;;;5070847;28;20194;-76
2021/01/18 02:51:17;;;;;;;4.63;3.08;;;2.20;99.90;;;;;;5070142;28;20224;-76
2021/01/18 02:53:57;;;;;;;6.28;3.53;;;2.20;99.90;;;;;;5072485;28;20197;-77
2021/01/18 02:56:26;;;;;;;3.95;3.50;;;2.20;99.90;;;;;;5076482;28;20268;-77
2021/01/18 02:58:53;;;;;;;5.00;3.20;;;2.20;99.90;;;;;;5074951;28;20183;-77
2021/01/18 03:01:45;;;;;;;3.83;3.45;;;2.20;99.90;;;;;;5071252;28;20222;-77
2021/01/18 03:04:33;;;;;;;6.43;3.45;;;2.30;99.90;;;;;;5060687;28;20186;-77
2021/01/18 03:07:09;;;;;;;5.88;4.00;;;2.30;99.90;;;;;;5073779;28;20557;-76
2021/01/18 03:09:42;;;;;;;4.65;3.60;;;2.20;99.90;;;;;;5066685;28;20210;-76
2021/01/18 03:12:10;;;;;;;5.50;4.53;;;2.20;99.90;;;;;;5069944;28;20194;-76
2021/01/18 03:14:47;;;;;;;4.50;3.50;;;2.20;99.90;;;;;;5071972;28;20265;-76
2021/01/18 03:17:19;;;;;;;6.60;4.20;;;2.20;99.90;;;;;;5070919;28;20181;-76
2021/01/18 03:19:45;;;;;;;5.45;4.05;;;2.20;99.90;;;;;;5071340;28;20182;-77
2021/01/18 03:22:21;;;;;;;6.13;3.93;;;2.20;99.90;;;;;;5065096;28;20189;-76
2021/01/18 03:24:47;;;;;;;9.15;5.00;;;2.30;99.90;;;;;;5068993;28;20174;-76
2021/01/18 03:27:13;;;;;;;5.07;4.27;;;2.30;99.90;;;;;;5071119;28;20193;-76
2021/01/18 03:29:39;;;;;;;7.65;4.50;;;2.20;99.90;;;;;;5062429;28;20197;-76
2021/01/18 03:32:06;;;;;;;6.80;4.23;;;2.20;99.90;;;;;;5061004;28;20194;-76
2021/01/18 03:34:32;;;;;;;6.38;4.18;;;2.20;99.90;;;;;;5071177;28;20428;-76
2021/01/18 03:36:57;;;;;;;6.77;5.00;;;2.20;99.90;;;;;;5072312;28;20193;-76
2021/01/18 03:39:23;;;;;;;9.07;4.97;;;2.20;99.90;;;;;;5070664;28;20940;-76
2021/01/18 03:41:48;;;;;;;7.20;4.73;;;2.20;99.90;;;;;;5067704;28;20241;-76
2021/01/18 03:44:14;;;;;;;9.90;6.17;;;2.20;99.90;;;;;;5067875;28;20637;-76
2021/01/18 03:46:46;;;;;;;5.50;4.67;;;2.20;99.90;;;;;;5070796;28;20316;-76
2021/01/18 03:49:13;;;;;;;9.13;5.10;;;2.20;99.90;;;;;;5070323;28;20186;-76
2021/01/18 03:51:39;;;;;;;7.95;4.95;;;2.20;99.90;;;;;;5070196;28;20210;-76
2021/01/18 03:54:04;;;;;;;8.47;5.10;;;2.20;99.90;;;;;;5070163;28;20188;-76
2021/01/18 03:56:30;;;;;;;8.97;5.20;;;2.20;99.90;;;;;;5072190;28;20530;-76
2021/01/18 03:58:56;;;;;;;8.90;5.87;;;2.20;99.90;;;;;;5069006;28;20439;-77
2021/01/18 04:01:21;;;;;;;9.20;5.63;;;2.20;99.90;;;;;;5074063;28;20268;-76
2021/01/18 04:03:47;;;;;;;11.50;6.40;;;2.10;99.90;;;;;;5073648;28;20185;-77
2021/01/18 04:06:12;;;;;;;7.00;5.60;;;2.10;99.90;;;;;;5075688;28;20182;-77
2021/01/18 04:08:38;;;;;;;9.80;6.30;;;2.10;99.90;;;;;;5075732;28;20224;-76
2021/01/18 04:11:03;;;;;;;10.07;6.67;;;2.10;99.90;;;;;;5074292;28;20308;-76
2021/01/18 04:13:29;;;;;;;7.80;4.60;;;2.10;99.90;;;;;;5071463;28;20354;-76
2021/01/18 04:15:54;;;;;;;7.53;5.60;;;2.10;99.90;;;;;;5074322;28;20197;-77
2021/01/18 04:18:20;;;;;;;8.33;5.63;;;2.10;99.90;;;;;;5071697;28;20206;-75
2021/01/18 04:20:45;;;;;;;8.63;5.00;;;2.00;99.90;;;;;;5075577;28;20177;-76
2021/01/18 04:23:11;;;;;;;8.60;5.57;;;2.00;99.90;;;;;;5075030;28;20214;-77
2021/01/18 04:25:36;;;;;;;7.07;5.23;;;2.00;99.90;;;;;;5072694;28;20204;-77
2021/01/18 04:28:04;;;;;;;12.37;6.77;;;1.90;99.90;;;;;;5074905;28;20591;-77
2021/01/18 04:30:33;;;;;;;9.07;5.93;;;1.90;99.90;;;;;;5073341;28;20276;-76
2021/01/18 04:33:04;;;;;;;9.35;6.30;;;1.90;99.90;;;;;;5068948;28;20186;-76
2021/01/18 04:35:31;;;;;;;7.38;6.00;;;1.90;99.90;;;;;;5071768;28;20217;-76
2021/01/18 04:37:57;;;;;;;9.00;6.28;;;1.80;99.90;;;;;;5073995;28;20232;-76
2021/01/18 04:40:28;;;;;;;10.35;5.15;;;1.80;99.90;;;;;;5074786;28;20182;-76
2021/01/18 04:42:54;;;;;;;7.72;5.05;;;1.80;99.90;;;;;;5072352;28;20629;-76
2021/01/18 04:45:22;;;;;;;7.15;5.70;;;1.70;99.90;;;;;;5075265;28;20178;-76
2021/01/18 04:47:49;;;;;;;11.07;5.20;;;1.70;99.90;;;;;;5073425;28;20181;-76
2021/01/18 04:50:16;;;;;;;14.38;5.47;;;1.60;99.90;;;;;;5074929;28;20217;-76
2021/01/18 04:52:44;;;;;;;12.90;6.25;;;1.50;99.90;;;;;;5071307;28;20178;-76
2021/01/18 04:55:22;;;;;;;5.72;4.88;;;1.50;99.90;;;;;;5073215;28;20269;-76
2021/01/18 04:58:03;;;;;;;8.60;4.80;;;1.40;99.90;;;;;;5074927;28;20208;-76
2021/01/18 05:00:57;;;;;;;9.23;5.18;;;1.40;99.90;;;;;;5065956;28;20178;-77
2021/01/18 05:03:28;;;;;;;7.60;5.05;;;1.40;99.90;;;;;;5073339;28;20194;-76
2021/01/18 05:06:15;;;;;;;8.77;4.70;;;1.40;99.90;;;;;;5071030;28;20174;-77
2021/01/18 05:09:02;;;;;;;6.82;4.93;;;1.40;99.90;;;;;;5069360;28;20181;-77
2021/01/18 05:11:28;;;;;;;8.23;4.60;;;1.30;99.90;;;;;;5069628;28;20209;-76
2021/01/18 05:14:01;;;;;;;8.80;5.20;;;1.30;99.90;;;;;;5071799;28;20185;-76
2021/01/18 05:16:35;;;;;;;7.97;4.70;;;1.20;99.90;;;;;;5073290;28;20471;-76
2021/01/18 05:19:20;;;;;;;10.02;5.70;;;1.20;99.90;;;;;;5070282;28;20232;-76
2021/01/18 05:21:46;;;;;;;9.02;6.05;;;1.10;99.90;;;;;;5063059;28;20648;-77
2021/01/18 05:24:12;;;;;;;8.27;4.97;;;1.10;99.90;;;;;;5070968;28;20568;-76
2021/01/18 05:26:39;;;;;;;9.77;5.80;;;1.00;99.90;;;;;;5074539;28;20261;-76
2021/01/18 05:29:05;;;;;;;10.15;6.00;;;1.00;99.90;;;;;;5073674;28;20185;-76
2021/01/18 05:31:32;;;;;;;10.77;7.10;;;0.90;99.90;;;;;;5071271;28;20217;-77
2021/01/18 05:34:04;;;;;;;9.80;7.07;;;0.90;99.90;;;;;;5071108;28;20421;-76
2021/01/18 05:36:47;;;;;;;13.60;8.57;;;0.80;99.90;;;;;;5069323;28;21251;-76
2021/01/18 05:39:18;;;;;;;12.07;8.35;;;0.80;99.90;;;;;;5074219;28;20188;-76
2021/01/18 05:41:49;;;;;;;9.35;8.15;;;0.70;99.90;;;;;;5074405;28;20235;-76
2021/01/18 05:44:15;;;;;;;11.00;8.73;;;0.70;99.90;;;;;;5073362;28;20174;-76
2021/01/18 05:46:44;;;;;;;10.82;8.15;;;0.70;99.90;;;;;;5070132;28;20546;-76
2021/01/18 05:49:20;;;;;;;13.38;7.93;;;0.60;99.90;;;;;;5077984;28;20239;-76
2021/01/18 05:51:50;;;;;;;14.88;8.70;;;0.60;99.90;;;;;;5064046;28;20256;-76
2021/01/18 05:54:21;;;;;;;10.00;8.20;;;0.50;99.90;;;;;;5071116;28;20204;-76
2021/01/18 05:56:47;;;;;;;14.32;8.38;;;0.50;99.90;;;;;;5067100;28;20649;-76
2021/01/18 05:59:19;;;;;;;9.60;6.93;;;0.50;99.90;;;;;;5072792;28;20193;-76
2021/01/18 06:01:46;;;;;;;12.20;8.25;;;0.40;99.90;;;;;;5071853;28;20233;-77
2021/01/18 06:04:13;;;;;;;11.95;9.48;;;0.40;99.90;;;;;;5073677;28;20178;-77
2021/01/18 06:06:41;;;;;;;11.65;8.68;;;0.40;99.90;;;;;;5068866;28;20257;-76
2021/01/18 06:09:06;;;;;;;12.20;8.85;;;0.30;99.90;;;;;;5074762;28;20186;-77
2021/01/18 06:11:32;;;;;;;11.80;7.20;;;0.40;99.90;;;;;;5072195;28;20218;-77
2021/01/18 06:14:03;;;;;;;9.37;6.50;;;0.50;99.90;;;;;;5068700;28;20277;-77
2021/01/18 06:16:30;;;;;;;6.85;4.78;;;0.60;99.90;;;;;;5070465;28;20548;-76
2021/01/18 06:19:03;;;;;;;6.65;5.13;;;0.60;99.90;;;;;;5073434;28;20228;-79
2021/01/18 06:21:40;;;;;;;8.85;5.38;;;0.70;99.90;;;;;;5070370;28;20190;-75
2021/01/18 06:24:21;;;;;;;7.78;5.25;;;0.60;99.90;;;;;;5068806;28;20664;-75
2021/01/18 06:26:47;;;;;;;9.73;6.00;;;0.60;99.90;;;;;;5068041;28;20264;-75
2021/01/18 06:29:42;;;;;;;8.27;6.13;;;0.50;99.90;;;;;;5073303;28;20185;-75
2021/01/18 06:32:09;;;;;;;7.15;4.60;;;0.50;99.90;;;;;;5067350;28;20234;-75
2021/01/18 06:34:35;;;;;;;6.05;4.15;;;0.40;99.90;;;;;;5072043;28;20214;-75
2021/01/18 06:37:01;;;;;;;8.63;5.00;;;0.40;99.90;;;;;;5066758;28;20182;-75
2021/01/18 06:39:29;;;;;;;7.63;4.40;;;0.30;99.90;;;;;;5073101;28;20208;-75
2021/01/18 06:41:59;;;;;;;8.40;5.43;;;0.40;99.90;;;;;;5068144;28;20424;-75
2021/01/18 06:44:36;;;;;;;6.05;4.82;;;0.30;99.90;;;;;;5072071;28;20189;-75
2021/01/18 06:47:21;;;;;;;6.28;4.53;;;0.30;99.90;;;;;;5072274;28;20182;-74
2021/01/18 06:49:46;;;;;;;8.18;5.70;;;0.30;99.90;;;;;;5070185;28;20548;-75
2021/01/18 06:52:16;;;;;;;7.13;5.37;;;0.30;99.90;;;;;;5072973;28;20182;-74
2021/01/18 06:54:45;;;;;;;6.40;5.43;;;0.30;99.90;;;;;;5067544;28;20181;-74
2021/01/18 06:57:40;;;;;;;8.05;6.22;;;0.30;99.90;;;;;;5072112;28;20189;-74
2021/01/18 07:00:06;;;;;;;10.68;7.82;;;0.20;99.90;;;;;;5065210;28;20201;-75
2021/01/18 07:02:37;;;;;;;11.93;7.70;;;0.20;99.90;;;;;;5069032;28;20260;-74
2021/01/18 07:05:10;;;;;;;8.88;6.70;;;0.20;99.90;;;;;;5067771;28;20185;-74
2021/01/18 07:07:37;;;;;;;7.95;5.63;;;0.20;99.90;;;;;;5071858;28;20178;-75
2021/01/18 07:10:11;;;;;;;12.60;5.75;;;0.30;99.90;;;;;;5072085;28;20319;-75
2021/01/18 07:12:37;;;;;;;5.93;5.32;;;0.30;99.90;;;;;;5072850;28;20192;-74
2021/01/18 07:15:10;;;;;;;6.50;5.80;;;0.40;99.90;;;;;;5072177;28;20190;-74
2021/01/18 07:17:54;;;;;;;5.57;4.55;;;0.50;99.90;;;;;;5071515;28;21045;-75
2021/01/18 07:20:20;;;;;;;6.05;4.80;;;0.50;99.90;;;;;;5061289;28;20307;-74
2021/01/18 07:23:20;;;;;;;6.60;4.53;;;0.60;99.90;;;;;;5069969;28;20221;-74
2021/01/18 07:25:47;;;;;;;10.38;4.93;;;0.60;99.90;;;;;;5068055;28;20355;-76
2021/01/18 07:28:17;;;;;;;4.43;3.63;;;0.70;99.90;;;;;;5070918;28;20645;-75
2021/01/18 07:30:43;;;;;;;5.90;3.88;;;0.80;99.90;;;;;;5067652;28;20677;-74
2021/01/18 07:33:14;;;;;;;6.80;4.57;;;0.80;99.90;;;;;;5071862;28;20192;-75
2021/01/18 07:35:42;;;;;;;4.53;3.95;;;0.90;99.90;;;;;;5069987;28;20182;-75
2021/01/18 07:38:16;;;;;;;5.03;3.40;;;1.00;99.90;;;;;;5071619;28;20189;-75
2021/01/18 07:41:02;;;;;;;4.97;3.55;;;1.00;99.90;;;;;;5072468;28;20267;-75
2021/01/18 07:43:34;;;;;;;4.32;3.92;;;1.10;99.90;;;;;;5064926;28;20240;-74
2021/01/18 07:46:25;;;;;;;4.97;3.55;;;1.20;99.90;;;;;;5065799;28;20209;-75
2021/01/18 07:48:55;;;;;;;4.43;3.60;;;1.20;99.90;;;;;;5066133;28;20186;-74
2021/01/18 07:51:23;;;;;;;4.35;3.78;;;1.40;99.90;;;;;;5069832;28;20245;-75
2021/01/18 07:53:49;;;;;;;6.28;4.13;;;1.50;99.90;;;;;;5070597;28;20189;-75
2021/01/18 07:56:28;;;;;;;5.55;4.00;;;1.50;99.90;;;;;;5070996;28;20271;-75
2021/01/18 07:59:00;;;;;;;6.82;4.63;;;1.60;99.90;;;;;;5064000;28;20187;-75
2021/01/18 08:01:39;;;;;;;4.63;3.90;;;1.70;99.90;;;;;;5065127;28;20268;-74
2021/01/18 08:04:22;;;;;;;5.22;3.58;;;1.80;99.90;;;;;;5069937;28;20196;-75
2021/01/18 08:07:04;;;;;;;4.30;3.30;;;1.90;99.90;;;;;;5064097;28;20269;-75
2021/01/18 08:09:30;;;;;;;4.32;3.72;;;2.00;99.90;;;;;;5063940;28;20295;-76
2021/01/18 08:12:34;;;;;;;6.13;4.17;;;2.10;99.90;;;;;;5070879;28;20229;-76
2021/01/18 08:15:09;;;;;;;6.22;4.35;;;2.20;99.90;;;;;;5069280;28;20424;-76
2021/01/18 08:17:36;;;;;;;6.03;3.92;;;2.20;99.90;;;;;;5069083;28;20240;-77
2021/01/18 08:20:16;;;;;;;6.38;4.63;;;2.30;99.90;;;;;;5074930;28;20194;-76
2021/01/18 08:22:42;;;;;;;7.43;4.50;;;2.40;99.90;;;;;;5063504;28;20541;-76
2021/01/18 08:25:09;;;;;;;6.22;4.00;;;2.40;99.90;;;;;;5071394;28;20178;-76
2021/01/18 08:27:54;;;;;;;5.22;4.70;;;2.50;99.90;;;;;;5075739;28;20194;-76
2021/01/18 08:30:27;;;;;;;4.93;4.00;;;2.60;99.90;;;;;;5070293;28;20564;-76
2021/01/18 08:33:04;;;;;;;6.00;4.70;;;2.60;99.90;;;;;;5067578;28;20641;-76
2021/01/18 08:35:39;;;;;;;5.63;4.57;;;2.70;99.90;;;;;;5065792;28;20193;-76
2021/01/18 08:38:07;;;;;;;7.55;4.63;;;2.80;99.90;;;;;;5067539;28;20594;-74
2021/01/18 08:40:44;;;;;;;6.38;5.00;;;2.80;99.90;;;;;;5070714;28;20265;-74
2021/01/18 08:43:12;;;;;;;4.95;3.95;;;2.90;99.90;;;;;;5071257;28;20251;-74
2021/01/18 08:45:46;;;;;;;6.35;4.82;;;3.00;99.90;;;;;;5064394;28;20175;-74
2021/01/18 08:48:14;;;;;;;8.23;4.97;;;3.10;99.90;;;;;;5069049;28;20242;-74
2021/01/18 08:50:53;;;;;;;4.90;4.35;;;3.10;99.90;;;;;;5068642;28;20302;-74
2021/01/18 08:53:29;;;;;;;10.32;7.03;;;3.10;99.90;;;;;;5070790;28;20229;-74
2021/01/18 08:56:27;;;;;;;8.43;6.70;;;3.20;99.90;;;;;;5073116;28;20181;-74
2021/01/18 08:58:52;;;;;;;8.73;6.22;;;3.20;99.90;;;;;;5065684;28;20186;-74
2021/01/18 09:01:26;;;;;;;8.37;5.07;;;3.40;99.90;;;;;;5073434;28;20225;-75
2021/01/18 09:04:04;;;;;;;6.35;3.78;;;3.40;99.90;;;;;;5072359;28;20214;-75
2021/01/18 09:06:29;;;;;;;4.15;3.10;;;3.40;99.90;;;;;;5069960;28;20195;-74
2021/01/18 09:09:08;;;;;;;5.47;4.27;;;3.50;99.90;;;;;;5068316;28;20194;-75
2021/01/18 09:11:34;;;;;;;6.22;4.88;;;3.50;99.90;;;;;;5068579;28;20640;-75
2021/01/18 09:14:02;;;;;;;4.85;3.90;;;3.50;99.90;;;;;;5065039;28;20286;-75
2021/01/18 09:16:28;;;;;;;4.60;4.20;;;3.60;99.90;;;;;;5066451;28;20187;-75
2021/01/18 09:18:53;;;;;;;5.07;3.83;;;3.60;99.90;;;;;;5072416;28;20193;-75
2021/01/18 09:21:19;;;;;;;4.93;4.33;;;3.70;99.90;;;;;;5076589;28;20208;-75
2021/01/18 09:23:45;;;;;;;5.22;4.15;;;3.60;99.90;;;;;;5065305;28;20182;-75
2021/01/18 09:26:14;;;;;;;3.38;3.08;;;3.60;99.90;;;;;;5070878;28;20229;-73
2021/01/18 09:28:41;;;;;;;4.72;3.83;;;3.60;99.90;;;;;;5072635;28;20178;-73
2021/01/18 09:31:11;;;;;;;4.88;4.43;;;3.50;99.90;;;;;;5069902;28;20217;-73
2021/01/18 09:33:39;;;;;;;4.93;4.15;;;3.50;99.90;;;;;;5066556;28;20248;-72
2021/01/18 09:36:10;;;;;;;4.00;3.53;;;3.50;99.90;;;;;;5069271;28;20213;-76
2021/01/18 09:38:36;;;;;;;3.80;3.33;;;3.50;99.90;;;;;;5069047;28;20582;-76
2021/01/18 09:41:01;;;;;;;5.53;3.67;;;3.50;99.90;;;;;;5076740;28;20227;-76
2021/01/18 09:43:28;;;;;;;6.27;3.50;;;3.60;99.90;;;;;;5070626;28;20178;-75
2021/01/18 09:45:55;;;;;;;3.20;2.78;;;3.60;99.90;;;;;;5073377;28;20181;-75
2021/01/18 09:48:25;;;;;;;4.85;3.35;;;3.70;99.90;;;;;;5077316;28;20544;-75
2021/01/18 09:51:05;;;;;;;6.00;3.60;;;3.80;99.90;;;;;;5053679;28;20225;-75
2021/01/18 09:53:32;;;;;;;4.57;3.70;;;3.80;99.90;;;;;;5068215;28;20186;-76
2021/01/18 09:56:04;;;;;;;3.47;2.50;;;4.00;99.90;;;;;;5070314;28;20190;-75
2021/01/18 09:58:32;;;;;;;3.13;2.60;;;4.00;99.90;;;;;;5072533;28;20186;-76
2021/01/18 10:01:00;;;;;;;4.55;3.30;;;4.10;99.90;;;;;;5073830;28;20584;-76
2021/01/18 10:03:27;;;;;;;4.05;3.65;;;4.30;99.90;;;;;;5068880;28;20260;-75
2021/01/18 10:06:06;;;;;;;3.60;2.95;;;4.40;99.90;;;;;;5068704;28;20261;-76
2021/01/18 10:08:33;;;;;;;5.20;3.30;;;4.60;99.90;;;;;;5078518;28;20183;-76
2021/01/18 10:10:59;;;;;;;4.82;3.83;;;4.70;99.90;;;;;;5072796;28;20252;-75
2021/01/18 10:13:25;;;;;;;8.50;5.75;;;4.90;99.90;;;;;;5070382;28;20174;-76
2021/01/18 10:15:52;;;;;;;5.82;4.80;;;5.00;99.90;;;;;;5070093;28;20189;-76
2021/01/18 10:18:31;;;;;;;5.55;4.78;;;5.20;99.90;;;;;;5072429;28;20742;-75
2021/01/18 10:20:57;;;;;;;5.10;4.57;;;5.30;99.90;;;;;;5079904;28;20267;-76
2021/01/18 10:23:23;;;;;;;6.00;4.35;;;5.50;99.90;;;;;;5071192;28;20217;-75
2021/01/18 10:25:49;;;;;;;5.47;4.00;;;5.60;99.90;;;;;;5065148;28;20206;-76
2021/01/18 10:28:19;;;;;;;5.50;3.80;;;5.60;99.90;;;;;;5061239;28;20190;-75
2021/01/18 10:30:45;;;;;;;5.20;4.25;;;5.60;99.90;;;;;;5073129;28;20503;-76
2021/01/18 10:33:19;;;;;;;11.02;6.85;;;5.70;99.90;;;;;;5064261;28;20198;-76
2021/01/18 10:35:46;;;;;;;8.40;7.60;;;5.80;99.90;;;;;;5071952;28;20247;-76
2021/01/18 10:38:13;;;;;;;7.40;6.30;;;5.90;99.90;;;;;;5071536;28;20185;-76
2021/01/18 10:40:39;;;;;;;7.32;6.68;;;6.10;99.90;;;;;;5068935;28;20621;-75
2021/01/18 10:43:05;;;;;;;6.28;5.63;;;6.20;99.90;;;;;;5067545;28;20190;-75
2021/01/18 10:45:31;;;;;;;7.25;5.63;;;6.30;99.90;;;;;;5068123;28;20193;-75
2021/01/18 10:47:59;;;;;;;6.97;5.10;;;6.50;99.90;;;;;;5071181;28;20192;-75
2021/01/18 10:50:30;;;;;;;9.25;5.80;;;6.70;99.90;;;;;;5072770;28;20297;-75
2021/01/18 10:53:09;;;;;;;7.30;5.68;;;6.80;99.90;;;;;;5071489;28;20618;-75
2021/01/18 10:55:36;;;;;;;6.57;5.20;;;7.20;99.90;;;;;;5072728;28;20257;-75
2021/01/18 10:58:03;;;;;;;6.70;5.05;;;7.60;99.90;;;;;;5071598;28;20231;-75
2021/01/18 11:00:30;;;;;;;6.72;4.60;;;8.20;99.90;;;;;;5077218;28;20197;-75
2021/01/18 11:03:01;;;;;;;5.68;4.45;;;8.40;99.90;;;;;;5079787;28;20251;-75
2021/01/18 11:05:32;;;;;;;5.45;4.57;;;8.40;99.90;;;;;;5065740;28;20691;-74
2021/01/18 11:08:00;;;;;;;4.80;4.20;;;8.50;99.90;;;;;;5069164;28;20194;-75
2021/01/18 11:10:26;;;;;;;4.75;4.25;;;8.60;99.90;;;;;;5067708;28;20224;-75
2021/01/18 11:13:18;;;;;;;4.78;4.30;;;8.70;99.90;;;;;;5067430;28;20190;-75
2021/01/18 11:15:47;;;;;;;9.30;5.18;;;8.50;98.90;;;;;;5060352;28;20194;-75
2021/01/18 11:18:13;;;;;;;6.18;5.40;;;8.40;99.60;;;;;;5067409;28;20182;-75
2021/01/18 11:20:41;;;;;;;6.33;5.10;;;8.20;99.10;;;;;;5068804;28;20234;-75
2021/01/18 11:23:11;;;;;;;9.30;5.35;;;8.00;99.40;;;;;;5070517;28;20432;-75
2021/01/18 11:25:37;;;;;;;5.82;4.07;;;7.80;99.90;;;;;;5073562;28;20266;-75
2021/01/18 11:28:10;;;;;;;5.93;4.40;;;7.60;99.60;;;;;;5072241;28;20186;-76
2021/01/18 11:30:37;;;;;;;9.43;5.80;;;7.60;99.90;;;;;;5073783;28;20214;-75
2021/01/18 11:33:03;;;;;;;7.03;6.32;;;7.50;99.90;;;;;;5071410;28;20698;-75
2021/01/18 11:35:28;;;;;;;11.13;8.95;;;7.70;99.90;;;;;;5070722;28;20197;-75
2021/01/18 11:37:54;;;;;;;6.97;5.47;;;7.90;99.90;;;;;;5067235;28;20676;-76
2021/01/18 11:40:20;;;;;;;11.33;9.70;;;8.10;98.80;;;;;;5070047;28;20232;-76
2021/01/18 11:42:45;;;;;;;8.40;6.45;;;8.20;99.90;;;;;;5070120;28;20213;-75
2021/01/18 11:45:12;;;;;;;12.70;9.17;;;8.30;99.90;;;;;;5068556;28;20199;-76
2021/01/18 11:47:39;;;;;;;6.78;6.05;;;8.20;98.70;;;;;;5066688;28;20239;-76
2021/01/18 11:50:06;;;;;;;8.45;6.32;;;8.20;98.10;;;;;;5067412;28;20309;-76
2021/01/18 11:52:32;;;;;;;8.43;6.60;;;8.00;95.10;;;;;;5070301;28;20265;-76
2021/01/18 11:54:57;;;;;;;8.13;5.97;;;8.00;97.00;;;;;;5071542;28;20217;-75
2021/01/18 11:57:23;;;;;;;6.90;5.10;;;8.10;98.90;;;;;;5070567;28;20190;-76
2021/01/18 11:59:48;;;;;;;4.60;4.20;;;8.10;98.60;;;;;;5071117;28;20752;-76
2021/01/18 12:02:18;;;;;;;6.13;4.80;;;8.10;97.00;;;;;;5070645;28;20229;-76
2021/01/18 12:04:44;;;;;;;6.40;5.65;;;8.00;99.00;;;;;;5071807;28;20190;-77
2021/01/18 12:07:12;;;;;;;6.33;4.63;;;7.80;98.60;;;;;;5067974;28;20266;-76
2021/01/18 12:09:38;;;;;;;5.03;4.13;;;7.70;99.40;;;;;;5071539;28;20182;-77
2021/01/18 12:12:04;;;;;;;4.07;3.47;;;7.60;98.90;;;;;;5069142;28;20704;-76
2021/01/18 12:14:29;;;;;;;6.27;4.70;;;7.50;99.30;;;;;;5070263;28;20772;-76
2021/01/18 12:17:00;;;;;;;5.23;4.83;;;7.40;99.90;;;;;;5070837;28;20527;-76
2021/01/18 12:19:25;;;;;;;4.43;3.88;;;7.40;99.90;;;;;;5071976;28;20186;-76
2021/01/18 12:21:53;;;;;;;4.60;4.20;;;7.40;98.50;;;;;;5070049;28;20228;-75
2021/01/18 12:24:18;;;;;;;5.07;4.38;;;7.40;97.70;;;;;;5061615;28;21580;-76
2021/01/18 12:26:44;;;;;;;5.47;4.13;;;7.40;98.70;;;;;;5073284;28;20193;-76
2021/01/18 12:29:09;;;;;;;4.67;4.20;;;7.60;97.50;;;;;;5075434;28;20194;-79
2021/01/18 12:31:36;;;;;;;5.40;4.17;;;7.60;97.80;;;;;;5074989;28;20228;-78
2021/01/18 12:34:03;;;;;;;5.70;4.45;;;7.60;97.50;;;;;;5070045;28;20178;-78
2021/01/18 12:36:29;;;;;;;5.00;3.58;;;7.50;98.70;;;;;;5070187;28;20182;-76
2021/01/18 12:38:54;;;;;;;4.27;3.43;;;7.40;96.60;;;;;;5075602;28;20204;-76
2021/01/18 12:41:20;;;;;;;3.73;3.43;;;7.30;97.00;;;;;;5071092;28;20182;-77
2021/01/18 12:43:45;;;;;;;3.90;2.90;;;7.20;98.20;;;;;;5072525;28;20555;-77
2021/01/18 12:46:11;;;;;;;4.97;3.00;;;7.10;98.00;;;;;;5071733;28;20242;-77
2021/01/18 12:48:36;;;;;;;5.40;4.10;;;7.10;96.80;;;;;;5069815;28;20664;-77
2021/01/18 12:51:02;;;;;;;3.83;3.23;;;7.10;97.30;;;;;;5074669;28;20312;-77
2021/01/18 12:53:43;;;;;;;3.83;3.20;;;7.20;98.50;;;;;;5074867;28;20193;-77
2021/01/18 12:56:10;;;;;;;3.33;3.05;;;7.20;98.70;;;;;;5068744;28;20269;-77
2021/01/18 12:58:36;;;;;;;4.85;3.78;;;7.20;97.80;;;;;;5075703;28;20209;-77
2021/01/18 13:01:02;;;;;;;6.20;3.83;;;7.20;97.40;;;;;;5076142;28;20257;-76
2021/01/18 13:03:27;;;;;;;3.27;2.97;;;7.10;97.00;;;;;;5073573;28;20216;-77
2021/01/18 13:05:53;;;;;;;5.90;3.50;;;7.10;98.10;;;;;;5070812;28;20187;-77
2021/01/18 13:08:18;;;;;;;4.60;3.20;;;7.10;98.70;;;;;;5073881;28;20186;-77
2021/01/18 13:10:44;;;;;;;5.80;4.10;;;7.00;96.70;;;;;;5074356;28;20275;-75